首页
METAR-TAF:

METAR-TAF

机场 :

金奈国际机场

金奈, 印度

纬度: 13-00N, 经度: 080-11E, 海拔: 10米

当前天气观测

该预报发布于30分钟前的15:00 UTC
风速4节,风向西转西北
温度 27°C
湿度 94%
气压 1003 hPa
能見度: 4500
散云层高于1800英尺
少量云层高于2500英尺, 积雨云.
多云层高于8000英尺
小毛毛雨

METAR: VOMM 161500Z 30004KT 4500 -DZ SCT018 FEW025CB BKN080 27/26 Q1003 NOSIG

时间: 21:00 (15:30 UTC)

预报

该预报发布于4小时和30分钟前的11:00 UTC
预报有效从16日的 12点(UTC)到 17日的 18点(UTC)
风速10节,风向
能見度: 6000
散云层高于1800英尺
多云层高于10000英尺
短暂存在
从 16日的 12点(UTC)到 16日的 18点(UTC)
能見度: 4000
散云层高于1800英尺
少量云层高于2500英尺, 积雨云.
多云层高于8000英尺
成为
从 17日的 00点(UTC)到 17日的 01点(UTC)
风速10节,风向西转西南
成为
从 17日的 12点(UTC)到 17日的 13点(UTC)
风速10节,风向
短暂存在
从 17日的 12点(UTC)到 17日的 18点(UTC)
能見度: 4000
散云层高于1800英尺
少量云层高于2500英尺, 积雨云.
多云层高于8000英尺

TAF: VOMM 161100Z 1612/1718 18010KT 6000 SCT018 BKN100 TEMPO 1612/1618 4000 -TSRA/RA SCT018 FEW025CB BKN080 BECMG 1700/1701 24010KT BECMG 1712/1713 18010KT TEMPO 1712/1718 4000 -TSRA/RA SCT018 FEW025CB BKN080

超过4000个机场的气象观测和天气预报(METAR&TAF报告)。

可查询的气象台以黄色和红色小点在地图上表示。

将鼠标移到小点上方,可查看气象台名称。

然后点击查看天气观测和预报。

如需切换地图:点击带黑十字的绿色按钮放大地图;点击带横线的绿色按钮缩小地图;或者点击绿色箭头查看邻近地区的地图。


METAR-TAF: